sensor_id;sensor_type;location;lat;lon;timestamp;P1;durP1;ratioP1;P2;durP2;ratioP2
40154;SDS011;25875;48.202;16.334;2024-01-30T00:00:56;16.73;;;13.52;;
40154;SDS011;25875;48.202;16.334;2024-01-30T00:03:25;15.05;;;12.40;;
40154;SDS011;25875;48.202;16.334;2024-01-30T00:05:51;16.55;;;13.20;;
40154;SDS011;25875;48.202;16.334;2024-01-30T00:08:18;16.80;;;13.07;;
40154;SDS011;25875;48.202;16.334;2024-01-30T00:10:44;17.15;;;11.52;;
40154;SDS011;25875;48.202;16.334;2024-01-30T00:13:11;17.88;;;12.48;;
40154;SDS011;25875;48.202;16.334;2024-01-30T00:15:39;18.17;;;13.77;;
40154;SDS011;25875;48.202;16.334;2024-01-30T00:18:05;16.73;;;12.80;;
40154;SDS011;25875;48.202;16.334;2024-01-30T00:20:33;16.60;;;12.15;;
40154;SDS011;25875;48.202;16.334;2024-01-30T00:23:00;17.83;;;13.23;;
40154;SDS011;25875;48.202;16.334;2024-01-30T00:25:27;16.10;;;12.73;;
40154;SDS011;25875;48.202;16.334;2024-01-30T00:27:54;16.30;;;12.73;;
40154;SDS011;25875;48.202;16.334;2024-01-30T00:30:21;17.55;;;13.00;;
40154;SDS011;25875;48.202;16.334;2024-01-30T00:32:47;17.30;;;12.05;;
40154;SDS011;25875;48.202;16.334;2024-01-30T00:35:14;17.98;;;13.45;;
40154;SDS011;25875;48.202;16.334;2024-01-30T00:37:42;17.33;;;13.23;;
40154;SDS011;25875;48.202;16.334;2024-01-30T00:40:09;18.80;;;13.52;;
40154;SDS011;25875;48.202;16.334;2024-01-30T00:42:40;16.33;;;12.68;;
40154;SDS011;25875;48.202;16.334;2024-01-30T00:45:11;20.27;;;13.98;;
40154;SDS011;25875;48.202;16.334;2024-01-30T00:47:38;17.55;;;14.25;;
40154;SDS011;25875;48.202;16.334;2024-01-30T00:50:05;18.35;;;13.52;;
40154;SDS011;25875;48.202;16.334;2024-01-30T00:52:32;17.88;;;12.40;;
40154;SDS011;25875;48.202;16.334;2024-01-30T00:55:00;17.38;;;13.90;;
40154;SDS011;25875;48.202;16.334;2024-01-30T00:57:27;16.33;;;13.48;;
40154;SDS011;25875;48.202;16.334;2024-01-30T00:59:54;17.80;;;13.57;;
40154;SDS011;25875;48.202;16.334;2024-01-30T01:02:21;18.88;;;12.10;;
40154;SDS011;25875;48.202;16.334;2024-01-30T01:04:47;15.07;;;12.27;;
40154;SDS011;25875;48.202;16.334;2024-01-30T01:07:15;16.65;;;12.85;;
40154;SDS011;25875;48.202;16.334;2024-01-30T01:09:41;17.65;;;13.48;;
40154;SDS011;25875;48.202;16.334;2024-01-30T01:12:09;16.65;;;13.38;;
40154;SDS011;25875;48.202;16.334;2024-01-30T01:14:36;17.92;;;12.25;;
40154;SDS011;25875;48.202;16.334;2024-01-30T01:17:03;16.40;;;12.52;;
40154;SDS011;25875;48.202;16.334;2024-01-30T01:19:29;17.27;;;13.20;;
40154;SDS011;25875;48.202;16.334;2024-01-30T01:21:56;14.63;;;12.88;;
40154;SDS011;25875;48.202;16.334;2024-01-30T01:24:22;16.60;;;13.02;;
40154;SDS011;25875;48.202;16.334;2024-01-30T01:26:49;18.60;;;12.80;;
40154;SDS011;25875;48.202;16.334;2024-01-30T01:29:17;17.45;;;14.00;;
40154;SDS011;25875;48.202;16.334;2024-01-30T01:31:44;19.70;;;14.23;;
40154;SDS011;25875;48.202;16.334;2024-01-30T01:34:11;19.00;;;13.38;;
40154;SDS011;25875;48.202;16.334;2024-01-30T01:36:38;17.13;;;12.85;;
40154;SDS011;25875;48.202;16.334;2024-01-30T01:39:05;15.90;;;12.60;;
40154;SDS011;25875;48.202;16.334;2024-01-30T01:41:33;18.92;;;12.90;;
40154;SDS011;25875;48.202;16.334;2024-01-30T01:44:00;15.00;;;12.90;;
40154;SDS011;25875;48.202;16.334;2024-01-30T01:46:30;15.65;;;12.75;;
40154;SDS011;25875;48.202;16.334;2024-01-30T01:48:59;15.60;;;13.07;;
40154;SDS011;25875;48.202;16.334;2024-01-30T01:51:28;15.90;;;12.40;;
40154;SDS011;25875;48.202;16.334;2024-01-30T01:53:57;18.02;;;12.85;;
40154;SDS011;25875;48.202;16.334;2024-01-30T01:56:26;20.02;;;14.27;;
40154;SDS011;25875;48.202;16.334;2024-01-30T01:58:54;20.38;;;13.85;;
40154;SDS011;25875;48.202;16.334;2024-01-30T02:01:21;16.05;;;12.18;;
40154;SDS011;25875;48.202;16.334;2024-01-30T02:03:52;18.38;;;13.15;;
40154;SDS011;25875;48.202;16.334;2024-01-30T02:06:18;15.98;;;12.77;;
40154;SDS011;25875;48.202;16.334;2024-01-30T02:08:46;17.25;;;12.38;;
40154;SDS011;25875;48.202;16.334;2024-01-30T02:11:13;19.38;;;13.35;;
40154;SDS011;25875;48.202;16.334;2024-01-30T02:13:41;17.00;;;12.38;;
40154;SDS011;25875;48.202;16.334;2024-01-30T02:16:08;15.73;;;12.65;;
40154;SDS011;25875;48.202;16.334;2024-01-30T02:18:35;15.73;;;13.02;;
40154;SDS011;25875;48.202;16.334;2024-01-30T02:21:08;16.52;;;13.20;;
40154;SDS011;25875;48.202;16.334;2024-01-30T02:23:34;16.92;;;13.20;;
40154;SDS011;25875;48.202;16.334;2024-01-30T02:26:01;17.77;;;12.23;;
40154;SDS011;25875;48.202;16.334;2024-01-30T02:28:28;15.65;;;11.88;;
40154;SDS011;25875;48.202;16.334;2024-01-30T02:30:54;16.27;;;12.50;;
40154;SDS011;25875;48.202;16.334;2024-01-30T02:33:21;18.52;;;12.18;;
40154;SDS011;25875;48.202;16.334;2024-01-30T02:35:48;17.00;;;12.40;;
40154;SDS011;25875;48.202;16.334;2024-01-30T02:38:16;19.35;;;13.20;;
40154;SDS011;25875;48.202;16.334;2024-01-30T02:40:42;17.85;;;12.63;;
40154;SDS011;25875;48.202;16.334;2024-01-30T02:43:09;15.38;;;12.68;;
40154;SDS011;25875;48.202;16.334;2024-01-30T02:45:36;18.35;;;13.00;;
40154;SDS011;25875;48.202;16.334;2024-01-30T02:48:03;17.40;;;13.43;;
40154;SDS011;25875;48.202;16.334;2024-01-30T02:50:30;16.02;;;12.63;;
40154;SDS011;25875;48.202;16.334;2024-01-30T02:52:57;17.88;;;12.30;;
40154;SDS011;25875;48.202;16.334;2024-01-30T02:55:25;16.65;;;12.32;;
40154;SDS011;25875;48.202;16.334;2024-01-30T02:57:51;16.73;;;12.52;;
40154;SDS011;25875;48.202;16.334;2024-01-30T03:00:19;15.98;;;12.63;;
40154;SDS011;25875;48.202;16.334;2024-01-30T03:02:46;16.30;;;11.77;;
40154;SDS011;25875;48.202;16.334;2024-01-30T03:05:12;15.48;;;11.98;;
40154;SDS011;25875;48.202;16.334;2024-01-30T03:07:39;18.08;;;14.32;;
40154;SDS011;25875;48.202;16.334;2024-01-30T03:10:06;16.60;;;12.15;;
40154;SDS011;25875;48.202;16.334;2024-01-30T03:12:34;15.55;;;12.38;;
40154;SDS011;25875;48.202;16.334;2024-01-30T03:15:01;17.52;;;13.40;;
40154;SDS011;25875;48.202;16.334;2024-01-30T03:17:28;14.40;;;11.05;;
40154;SDS011;25875;48.202;16.334;2024-01-30T03:19:54;17.25;;;12.90;;
40154;SDS011;25875;48.202;16.334;2024-01-30T03:22:21;21.10;;;13.30;;
40154;SDS011;25875;48.202;16.334;2024-01-30T03:24:47;16.08;;;11.85;;
40154;SDS011;25875;48.202;16.334;2024-01-30T03:27:14;17.08;;;12.75;;
40154;SDS011;25875;48.202;16.334;2024-01-30T03:29:42;16.10;;;12.10;;
40154;SDS011;25875;48.202;16.334;2024-01-30T03:32:09;17.75;;;13.52;;
40154;SDS011;25875;48.202;16.334;2024-01-30T03:34:36;20.20;;;13.43;;
40154;SDS011;25875;48.202;16.334;2024-01-30T03:37:02;17.20;;;12.80;;
40154;SDS011;25875;48.202;16.334;2024-01-30T03:39:30;20.75;;;12.77;;
40154;SDS011;25875;48.202;16.334;2024-01-30T03:41:56;18.85;;;13.60;;
40154;SDS011;25875;48.202;16.334;2024-01-30T03:44:23;15.15;;;12.98;;
40154;SDS011;25875;48.202;16.334;2024-01-30T03:46:51;16.40;;;12.82;;
40154;SDS011;25875;48.202;16.334;2024-01-30T03:49:18;19.02;;;12.30;;
40154;SDS011;25875;48.202;16.334;2024-01-30T03:51:45;18.73;;;13.55;;
40154;SDS011;25875;48.202;16.334;2024-01-30T03:54:12;15.95;;;12.13;;
40154;SDS011;25875;48.202;16.334;2024-01-30T03:56:39;21.58;;;13.40;;
40154;SDS011;25875;48.202;16.334;2024-01-30T03:59:05;20.65;;;12.95;;
40154;SDS011;25875;48.202;16.334;2024-01-30T04:01:32;16.55;;;12.90;;
40154;SDS011;25875;48.202;16.334;2024-01-30T04:04:00;17.40;;;12.02;;
40154;SDS011;25875;48.202;16.334;2024-01-30T04:06:27;18.95;;;12.73;;
40154;SDS011;25875;48.202;16.334;2024-01-30T04:08:53;17.15;;;14.07;;
40154;SDS011;25875;48.202;16.334;2024-01-30T04:11:20;14.35;;;11.93;;
40154;SDS011;25875;48.202;16.334;2024-01-30T04:13:47;18.30;;;13.57;;
40154;SDS011;25875;48.202;16.334;2024-01-30T04:16:19;18.38;;;13.93;;
40154;SDS011;25875;48.202;16.334;2024-01-30T04:18:47;17.90;;;13.02;;
40154;SDS011;25875;48.202;16.334;2024-01-30T04:21:15;20.65;;;12.77;;
40154;SDS011;25875;48.202;16.334;2024-01-30T04:23:41;17.52;;;13.45;;
40154;SDS011;25875;48.202;16.334;2024-01-30T04:26:08;19.38;;;14.30;;
40154;SDS011;25875;48.202;16.334;2024-01-30T04:28:34;16.92;;;13.10;;
40154;SDS011;25875;48.202;16.334;2024-01-30T04:31:01;18.23;;;13.43;;
40154;SDS011;25875;48.202;16.334;2024-01-30T04:33:28;18.80;;;15.00;;
40154;SDS011;25875;48.202;16.334;2024-01-30T04:35:54;17.05;;;13.50;;
40154;SDS011;25875;48.202;16.334;2024-01-30T04:38:24;18.45;;;14.82;;
40154;SDS011;25875;48.202;16.334;2024-01-30T04:40:50;17.95;;;12.95;;
40154;SDS011;25875;48.202;16.334;2024-01-30T04:43:17;17.48;;;13.88;;
40154;SDS011;25875;48.202;16.334;2024-01-30T04:45:44;17.30;;;13.38;;
40154;SDS011;25875;48.202;16.334;2024-01-30T04:48:10;19.38;;;13.02;;
40154;SDS011;25875;48.202;16.334;2024-01-30T04:50:37;20.25;;;13.98;;
40154;SDS011;25875;48.202;16.334;2024-01-30T04:53:04;16.35;;;13.55;;
40154;SDS011;25875;48.202;16.334;2024-01-30T04:55:32;19.67;;;14.35;;
40154;SDS011;25875;48.202;16.334;2024-01-30T04:57:58;18.58;;;14.13;;
40154;SDS011;25875;48.202;16.334;2024-01-30T05:00:25;21.52;;;16.30;;
40154;SDS011;25875;48.202;16.334;2024-01-30T05:02:52;22.85;;;15.70;;
40154;SDS011;25875;48.202;16.334;2024-01-30T05:05:18;20.17;;;15.23;;
40154;SDS011;25875;48.202;16.334;2024-01-30T05:07:46;18.55;;;14.07;;
40154;SDS011;25875;48.202;16.334;2024-01-30T05:10:13;16.67;;;14.20;;
40154;SDS011;25875;48.202;16.334;2024-01-30T05:12:42;19.13;;;14.50;;
40154;SDS011;25875;48.202;16.334;2024-01-30T05:15:09;16.75;;;13.60;;
40154;SDS011;25875;48.202;16.334;2024-01-30T05:17:35;17.70;;;14.25;;
40154;SDS011;25875;48.202;16.334;2024-01-30T05:20:02;16.67;;;13.57;;
40154;SDS011;25875;48.202;16.334;2024-01-30T05:22:29;17.70;;;13.95;;
40154;SDS011;25875;48.202;16.334;2024-01-30T05:24:56;16.95;;;13.13;;
40154;SDS011;25875;48.202;16.334;2024-01-30T05:27:23;18.15;;;14.35;;
40154;SDS011;25875;48.202;16.334;2024-01-30T05:29:51;18.73;;;14.82;;
40154;SDS011;25875;48.202;16.334;2024-01-30T05:32:17;17.02;;;13.07;;
40154;SDS011;25875;48.202;16.334;2024-01-30T05:34:44;18.08;;;12.70;;
40154;SDS011;25875;48.202;16.334;2024-01-30T05:37:10;21.08;;;13.93;;
40154;SDS011;25875;48.202;16.334;2024-01-30T05:39:39;20.67;;;14.15;;
40154;SDS011;25875;48.202;16.334;2024-01-30T05:42:06;18.65;;;14.57;;
40154;SDS011;25875;48.202;16.334;2024-01-30T05:44:32;15.95;;;12.63;;
40154;SDS011;25875;48.202;16.334;2024-01-30T05:47:01;22.15;;;14.80;;
40154;SDS011;25875;48.202;16.334;2024-01-30T05:49:27;18.58;;;13.77;;
40154;SDS011;25875;48.202;16.334;2024-01-30T05:51:54;18.67;;;14.13;;
40154;SDS011;25875;48.202;16.334;2024-01-30T05:54:20;16.40;;;12.93;;
40154;SDS011;25875;48.202;16.334;2024-01-30T05:56:47;19.55;;;13.52;;
40154;SDS011;25875;48.202;16.334;2024-01-30T05:59:14;19.35;;;14.73;;
40154;SDS011;25875;48.202;16.334;2024-01-30T06:01:45;17.70;;;12.98;;
40154;SDS011;25875;48.202;16.334;2024-01-30T06:04:13;19.55;;;14.15;;
40154;SDS011;25875;48.202;16.334;2024-01-30T06:06:40;20.38;;;15.15;;
40154;SDS011;25875;48.202;16.334;2024-01-30T06:09:06;19.08;;;14.18;;
40154;SDS011;25875;48.202;16.334;2024-01-30T06:11:34;18.40;;;14.20;;
40154;SDS011;25875;48.202;16.334;2024-01-30T06:14:00;17.35;;;14.32;;
40154;SDS011;25875;48.202;16.334;2024-01-30T06:16:27;18.42;;;14.45;;
40154;SDS011;25875;48.202;16.334;2024-01-30T06:18:54;18.70;;;14.07;;
40154;SDS011;25875;48.202;16.334;2024-01-30T06:21:23;20.27;;;14.20;;
40154;SDS011;25875;48.202;16.334;2024-01-30T06:23:50;20.02;;;14.25;;
40154;SDS011;25875;48.202;16.334;2024-01-30T06:26:16;19.05;;;14.70;;
40154;SDS011;25875;48.202;16.334;2024-01-30T06:28:43;19.17;;;15.23;;
40154;SDS011;25875;48.202;16.334;2024-01-30T06:31:10;19.77;;;14.73;;
40154;SDS011;25875;48.202;16.334;2024-01-30T06:33:37;22.58;;;14.43;;
40154;SDS011;25875;48.202;16.334;2024-01-30T06:36:03;22.30;;;14.93;;
40154;SDS011;25875;48.202;16.334;2024-01-30T06:38:31;21.67;;;14.65;;
40154;SDS011;25875;48.202;16.334;2024-01-30T06:40:58;19.13;;;15.20;;
40154;SDS011;25875;48.202;16.334;2024-01-30T06:43:25;20.23;;;13.50;;
40154;SDS011;25875;48.202;16.334;2024-01-30T06:45:51;16.20;;;13.15;;
40154;SDS011;25875;48.202;16.334;2024-01-30T06:48:18;19.67;;;14.13;;
40154;SDS011;25875;48.202;16.334;2024-01-30T06:50:45;21.63;;;15.32;;
40154;SDS011;25875;48.202;16.334;2024-01-30T06:53:13;20.42;;;15.65;;
40154;SDS011;25875;48.202;16.334;2024-01-30T06:55:41;18.38;;;14.48;;
40154;SDS011;25875;48.202;16.334;2024-01-30T06:58:07;21.45;;;14.93;;
40154;SDS011;25875;48.202;16.334;2024-01-30T07:00:34;21.15;;;15.05;;
40154;SDS011;25875;48.202;16.334;2024-01-30T07:03:01;20.20;;;14.13;;
40154;SDS011;25875;48.202;16.334;2024-01-30T07:05:28;19.92;;;14.48;;
40154;SDS011;25875;48.202;16.334;2024-01-30T07:07:54;20.60;;;15.27;;
40154;SDS011;25875;48.202;16.334;2024-01-30T07:10:21;17.38;;;13.65;;
40154;SDS011;25875;48.202;16.334;2024-01-30T07:12:49;20.20;;;14.50;;
40154;SDS011;25875;48.202;16.334;2024-01-30T07:15:16;23.15;;;13.43;;
40154;SDS011;25875;48.202;16.334;2024-01-30T07:17:45;18.48;;;13.55;;
40154;SDS011;25875;48.202;16.334;2024-01-30T07:20:12;18.80;;;14.95;;
40154;SDS011;25875;48.202;16.334;2024-01-30T07:22:39;21.52;;;14.32;;
40154;SDS011;25875;48.202;16.334;2024-01-30T07:25:06;19.08;;;13.93;;
40154;SDS011;25875;48.202;16.334;2024-01-30T07:27:34;16.58;;;13.98;;
40154;SDS011;25875;48.202;16.334;2024-01-30T07:30:02;20.63;;;14.35;;
40154;SDS011;25875;48.202;16.334;2024-01-30T07:32:29;19.85;;;15.80;;
40154;SDS011;25875;48.202;16.334;2024-01-30T07:34:56;22.70;;;15.35;;
40154;SDS011;25875;48.202;16.334;2024-01-30T07:37:23;18.92;;;14.68;;
40154;SDS011;25875;48.202;16.334;2024-01-30T07:39:50;22.95;;;15.77;;
40154;SDS011;25875;48.202;16.334;2024-01-30T07:42:16;22.17;;;15.25;;
40154;SDS011;25875;48.202;16.334;2024-01-30T07:44:43;23.15;;;16.27;;
40154;SDS011;25875;48.202;16.334;2024-01-30T07:47:11;19.67;;;15.05;;
40154;SDS011;25875;48.202;16.334;2024-01-30T07:49:38;21.10;;;14.10;;
40154;SDS011;25875;48.202;16.334;2024-01-30T07:52:05;21.60;;;14.90;;
40154;SDS011;25875;48.202;16.334;2024-01-30T07:54:32;21.30;;;16.00;;
40154;SDS011;25875;48.202;16.334;2024-01-30T07:56:59;22.23;;;14.38;;
40154;SDS011;25875;48.202;16.334;2024-01-30T07:59:26;19.42;;;15.00;;
40154;SDS011;25875;48.202;16.334;2024-01-30T08:01:53;21.45;;;14.15;;
40154;SDS011;25875;48.202;16.334;2024-01-30T08:04:21;21.83;;;14.57;;
40154;SDS011;25875;48.202;16.334;2024-01-30T08:06:48;21.67;;;15.73;;
40154;SDS011;25875;48.202;16.334;2024-01-30T08:09:15;19.63;;;14.40;;
40154;SDS011;25875;48.202;16.334;2024-01-30T08:11:41;23.33;;;15.43;;
40154;SDS011;25875;48.202;16.334;2024-01-30T08:14:08;21.73;;;15.00;;
40154;SDS011;25875;48.202;16.334;2024-01-30T08:16:34;19.38;;;14.55;;
40154;SDS011;25875;48.202;16.334;2024-01-30T08:19:01;19.95;;;14.40;;
40154;SDS011;25875;48.202;16.334;2024-01-30T08:21:29;18.90;;;13.88;;
40154;SDS011;25875;48.202;16.334;2024-01-30T08:24:01;22.10;;;14.40;;
40154;SDS011;25875;48.202;16.334;2024-01-30T08:26:28;18.00;;;14.95;;
40154;SDS011;25875;48.202;16.334;2024-01-30T08:28:54;19.02;;;13.63;;
40154;SDS011;25875;48.202;16.334;2024-01-30T08:31:21;20.70;;;14.23;;
40154;SDS011;25875;48.202;16.334;2024-01-30T08:33:48;24.45;;;15.52;;
40154;SDS011;25875;48.202;16.334;2024-01-30T08:36:15;19.95;;;13.27;;
40154;SDS011;25875;48.202;16.334;2024-01-30T08:38:43;22.15;;;16.08;;
40154;SDS011;25875;48.202;16.334;2024-01-30T08:41:09;17.45;;;13.57;;
40154;SDS011;25875;48.202;16.334;2024-01-30T08:43:36;18.70;;;13.95;;
40154;SDS011;25875;48.202;16.334;2024-01-30T08:46:03;20.33;;;15.30;;
40154;SDS011;25875;48.202;16.334;2024-01-30T08:48:30;19.75;;;13.23;;
40154;SDS011;25875;48.202;16.334;2024-01-30T08:50:56;21.02;;;12.82;;
40154;SDS011;25875;48.202;16.334;2024-01-30T08:53:23;18.27;;;13.82;;
40154;SDS011;25875;48.202;16.334;2024-01-30T08:55:52;20.67;;;14.18;;
40154;SDS011;25875;48.202;16.334;2024-01-30T08:58:18;18.15;;;13.05;;
40154;SDS011;25875;48.202;16.334;2024-01-30T09:00:45;18.38;;;13.77;;
40154;SDS011;25875;48.202;16.334;2024-01-30T09:03:12;17.30;;;12.88;;
40154;SDS011;25875;48.202;16.334;2024-01-30T09:05:38;18.52;;;13.43;;
40154;SDS011;25875;48.202;16.334;2024-01-30T09:08:05;16.08;;;14.00;;
40154;SDS011;25875;48.202;16.334;2024-01-30T09:10:32;16.17;;;13.10;;
40154;SDS011;25875;48.202;16.334;2024-01-30T09:13:00;17.92;;;13.40;;
40154;SDS011;25875;48.202;16.334;2024-01-30T09:15:26;19.40;;;15.13;;
40154;SDS011;25875;48.202;16.334;2024-01-30T09:17:53;18.60;;;13.30;;
40154;SDS011;25875;48.202;16.334;2024-01-30T09:20:20;17.30;;;13.80;;
40154;SDS011;25875;48.202;16.334;2024-01-30T09:22:47;16.63;;;13.82;;
40154;SDS011;25875;48.202;16.334;2024-01-30T09:25:14;16.60;;;13.00;;
40154;SDS011;25875;48.202;16.334;2024-01-30T09:27:40;18.95;;;13.60;;
40154;SDS011;25875;48.202;16.334;2024-01-30T09:30:09;17.30;;;13.80;;
40154;SDS011;25875;48.202;16.334;2024-01-30T09:32:36;17.30;;;13.88;;
40154;SDS011;25875;48.202;16.334;2024-01-30T09:35:03;16.30;;;12.95;;
40154;SDS011;25875;48.202;16.334;2024-01-30T09:37:31;17.85;;;14.07;;
40154;SDS011;25875;48.202;16.334;2024-01-30T09:39:58;20.95;;;13.18;;
40154;SDS011;25875;48.202;16.334;2024-01-30T09:42:26;17.85;;;13.13;;
40154;SDS011;25875;48.202;16.334;2024-01-30T09:44:57;17.13;;;12.98;;
40154;SDS011;25875;48.202;16.334;2024-01-30T09:47:25;16.40;;;13.38;;
40154;SDS011;25875;48.202;16.334;2024-01-30T09:49:52;18.20;;;14.07;;
40154;SDS011;25875;48.202;16.334;2024-01-30T09:52:19;18.52;;;13.15;;
40154;SDS011;25875;48.202;16.334;2024-01-30T09:54:46;17.67;;;13.32;;
40154;SDS011;25875;48.202;16.334;2024-01-30T09:57:15;14.75;;;12.90;;
40154;SDS011;25875;48.202;16.334;2024-01-30T09:59:42;15.15;;;12.55;;
40154;SDS011;25875;48.202;16.334;2024-01-30T10:02:09;16.98;;;13.50;;
40154;SDS011;25875;48.202;16.334;2024-01-30T10:04:37;16.77;;;12.80;;
40154;SDS011;25875;48.202;16.334;2024-01-30T10:07:04;14.73;;;12.27;;
40154;SDS011;25875;48.202;16.334;2024-01-30T10:09:31;15.55;;;12.40;;
40154;SDS011;25875;48.202;16.334;2024-01-30T10:11:59;17.48;;;13.75;;
40154;SDS011;25875;48.202;16.334;2024-01-30T10:14:28;17.25;;;13.88;;
40154;SDS011;25875;48.202;16.334;2024-01-30T10:16:55;18.10;;;13.88;;
40154;SDS011;25875;48.202;16.334;2024-01-30T10:19:23;15.55;;;13.18;;
40154;SDS011;25875;48.202;16.334;2024-01-30T10:21:51;16.95;;;12.82;;
40154;SDS011;25875;48.202;16.334;2024-01-30T10:24:18;18.35;;;12.57;;
40154;SDS011;25875;48.202;16.334;2024-01-30T10:26:44;16.98;;;12.63;;
40154;SDS011;25875;48.202;16.334;2024-01-30T10:29:11;16.92;;;13.60;;
40154;SDS011;25875;48.202;16.334;2024-01-30T10:31:38;17.33;;;12.65;;
40154;SDS011;25875;48.202;16.334;2024-01-30T10:34:04;16.70;;;13.40;;
40154;SDS011;25875;48.202;16.334;2024-01-30T10:36:31;17.17;;;12.77;;
40154;SDS011;25875;48.202;16.334;2024-01-30T10:39:08;16.80;;;12.45;;
40154;SDS011;25875;48.202;16.334;2024-01-30T10:41:37;15.57;;;12.82;;
40154;SDS011;25875;48.202;16.334;2024-01-30T10:46:37;17.85;;;12.80;;
40154;SDS011;25875;48.202;16.334;2024-01-30T10:49:04;18.25;;;11.88;;
40154;SDS011;25875;48.202;16.334;2024-01-30T10:51:32;17.73;;;13.77;;
40154;SDS011;25875;48.202;16.334;2024-01-30T10:54:00;16.23;;;12.73;;
40154;SDS011;25875;48.202;16.334;2024-01-30T10:56:30;19.42;;;13.98;;
40154;SDS011;25875;48.202;16.334;2024-01-30T10:58:59;15.52;;;12.38;;
40154;SDS011;25875;48.202;16.334;2024-01-30T11:01:26;18.58;;;13.65;;
40154;SDS011;25875;48.202;16.334;2024-01-30T11:03:54;16.30;;;12.85;;
40154;SDS011;25875;48.202;16.334;2024-01-30T11:06:22;16.58;;;13.40;;
40154;SDS011;25875;48.202;16.334;2024-01-30T11:08:59;15.98;;;11.90;;
40154;SDS011;25875;48.202;16.334;2024-01-30T11:11:28;18.02;;;13.00;;
40154;SDS011;25875;48.202;16.334;2024-01-30T11:13:56;18.25;;;12.50;;
40154;SDS011;25875;48.202;16.334;2024-01-30T11:16:30;15.55;;;11.98;;
40154;SDS011;25875;48.202;16.334;2024-01-30T11:19:00;13.32;;;11.93;;
40154;SDS011;25875;48.202;16.334;2024-01-30T11:21:27;15.43;;;12.38;;
40154;SDS011;25875;48.202;16.334;2024-01-30T11:23:54;16.08;;;12.40;;
40154;SDS011;25875;48.202;16.334;2024-01-30T11:26:23;14.85;;;11.30;;
40154;SDS011;25875;48.202;16.334;2024-01-30T11:28:53;15.38;;;11.88;;
40154;SDS011;25875;48.202;16.334;2024-01-30T11:31:23;13.45;;;10.45;;
40154;SDS011;25875;48.202;16.334;2024-01-30T11:33:52;15.52;;;11.27;;
40154;SDS011;25875;48.202;16.334;2024-01-30T11:36:19;16.52;;;13.00;;
40154;SDS011;25875;48.202;16.334;2024-01-30T11:38:51;14.60;;;11.40;;
40154;SDS011;25875;48.202;16.334;2024-01-30T11:41:18;16.05;;;12.13;;
40154;SDS011;25875;48.202;16.334;2024-01-30T11:43:50;13.68;;;10.95;;
40154;SDS011;25875;48.202;16.334;2024-01-30T11:46:19;14.07;;;11.73;;
40154;SDS011;25875;48.202;16.334;2024-01-30T11:48:46;15.18;;;11.20;;
40154;SDS011;25875;48.202;16.334;2024-01-30T11:51:13;13.13;;;11.73;;
40154;SDS011;25875;48.202;16.334;2024-01-30T11:53:39;17.10;;;11.10;;
40154;SDS011;25875;48.202;16.334;2024-01-30T11:56:07;17.02;;;11.75;;
40154;SDS011;25875;48.202;16.334;2024-01-30T11:58:34;13.45;;;11.10;;
40154;SDS011;25875;48.202;16.334;2024-01-30T12:01:01;14.05;;;11.52;;
40154;SDS011;25875;48.202;16.334;2024-01-30T12:03:29;14.18;;;11.30;;
40154;SDS011;25875;48.202;16.334;2024-01-30T12:05:56;13.20;;;11.00;;
40154;SDS011;25875;48.202;16.334;2024-01-30T12:08:23;15.07;;;11.45;;
40154;SDS011;25875;48.202;16.334;2024-01-30T12:10:55;12.50;;;10.95;;
40154;SDS011;25875;48.202;16.334;2024-01-30T12:13:22;13.25;;;10.02;;
40154;SDS011;25875;48.202;16.334;2024-01-30T12:15:49;12.80;;;10.48;;
40154;SDS011;25875;48.202;16.334;2024-01-30T12:18:18;16.00;;;11.65;;
40154;SDS011;25875;48.202;16.334;2024-01-30T12:20:47;15.40;;;11.18;;
40154;SDS011;25875;48.202;16.334;2024-01-30T12:23:23;15.75;;;11.07;;
40154;SDS011;25875;48.202;16.334;2024-01-30T12:25:51;12.77;;;10.68;;
40154;SDS011;25875;48.202;16.334;2024-01-30T12:28:18;13.82;;;11.05;;
40154;SDS011;25875;48.202;16.334;2024-01-30T12:30:44;14.25;;;11.40;;
40154;SDS011;25875;48.202;16.334;2024-01-30T12:33:15;18.85;;;11.88;;
40154;SDS011;25875;48.202;16.334;2024-01-30T12:35:46;17.30;;;11.15;;
40154;SDS011;25875;48.202;16.334;2024-01-30T12:38:13;14.20;;;11.85;;
40154;SDS011;25875;48.202;16.334;2024-01-30T12:40:40;12.77;;;10.50;;
40154;SDS011;25875;48.202;16.334;2024-01-30T12:43:07;15.35;;;11.55;;
40154;SDS011;25875;48.202;16.334;2024-01-30T12:45:34;15.32;;;10.77;;
40154;SDS011;25875;48.202;16.334;2024-01-30T12:48:01;12.70;;;10.73;;
40154;SDS011;25875;48.202;16.334;2024-01-30T12:50:27;15.70;;;11.63;;
40154;SDS011;25875;48.202;16.334;2024-01-30T12:52:55;14.07;;;11.02;;
40154;SDS011;25875;48.202;16.334;2024-01-30T12:55:23;20.20;;;11.02;;
40154;SDS011;25875;48.202;16.334;2024-01-30T12:57:53;12.13;;;9.85;;
40154;SDS011;25875;48.202;16.334;2024-01-30T13:00:20;15.13;;;11.52;;
40154;SDS011;25875;48.202;16.334;2024-01-30T13:02:47;13.90;;;12.23;;
40154;SDS011;25875;48.202;16.334;2024-01-30T13:05:14;18.80;;;12.32;;
40154;SDS011;25875;48.202;16.334;2024-01-30T13:07:40;15.80;;;11.73;;
40154;SDS011;25875;48.202;16.334;2024-01-30T13:10:08;13.95;;;11.13;;
40154;SDS011;25875;48.202;16.334;2024-01-30T13:12:35;16.70;;;11.63;;
40154;SDS011;25875;48.202;16.334;2024-01-30T13:15:03;14.32;;;10.77;;
40154;SDS011;25875;48.202;16.334;2024-01-30T13:17:31;15.43;;;11.75;;
40154;SDS011;25875;48.202;16.334;2024-01-30T13:19:58;12.32;;;10.82;;
40154;SDS011;25875;48.202;16.334;2024-01-30T13:22:24;13.27;;;10.75;;
40154;SDS011;25875;48.202;16.334;2024-01-30T13:24:51;15.25;;;11.15;;
40154;SDS011;25875;48.202;16.334;2024-01-30T13:27:20;14.30;;;9.95;;
40154;SDS011;25875;48.202;16.334;2024-01-30T13:29:47;13.95;;;11.90;;
40154;SDS011;25875;48.202;16.334;2024-01-30T13:32:13;10.70;;;9.57;;
40154;SDS011;25875;48.202;16.334;2024-01-30T13:34:40;14.90;;;10.90;;
40154;SDS011;25875;48.202;16.334;2024-01-30T13:37:08;12.50;;;10.05;;
40154;SDS011;25875;48.202;16.334;2024-01-30T13:39:35;15.35;;;10.80;;
40154;SDS011;25875;48.202;16.334;2024-01-30T13:42:01;13.15;;;10.15;;
40154;SDS011;25875;48.202;16.334;2024-01-30T13:44:30;15.02;;;10.75;;
40154;SDS011;25875;48.202;16.334;2024-01-30T13:46:57;11.20;;;9.93;;
40154;SDS011;25875;48.202;16.334;2024-01-30T13:49:23;11.68;;;10.07;;
40154;SDS011;25875;48.202;16.334;2024-01-30T13:51:50;16.88;;;12.13;;
40154;SDS011;25875;48.202;16.334;2024-01-30T13:54:17;13.90;;;10.55;;
40154;SDS011;25875;48.202;16.334;2024-01-30T13:56:43;14.43;;;11.32;;
40154;SDS011;25875;48.202;16.334;2024-01-30T13:59:10;14.20;;;11.00;;
40154;SDS011;25875;48.202;16.334;2024-01-30T14:01:38;15.63;;;10.32;;
40154;SDS011;25875;48.202;16.334;2024-01-30T14:04:05;15.25;;;11.10;;
40154;SDS011;25875;48.202;16.334;2024-01-30T14:06:32;15.57;;;10.32;;
40154;SDS011;25875;48.202;16.334;2024-01-30T14:08:58;15.02;;;10.63;;
40154;SDS011;25875;48.202;16.334;2024-01-30T14:11:25;13.65;;;9.75;;